Oytind — LM6775 — position and weather

sailwx.info

Track history (hours):
 
Tides and Currents Weather Stations Pressure Air Temp Water Temp Dewpoint Dewpoint Depression Visibility Wind Speed Wind Dir Waves Ship Positions

Oytind

Last reported at 2017-Nov-16 09:06 UTC. Time now 2017-Nov-17 23:14 UTC.
Position N 70°49' E 030°17'.

Length 12 m.

Type: Fishing. MMSI: 257350520.

Date/timePositionNaut miles runAvg speedWind from/ knotsBaromVisibWave heightAir tempDewpointWater temp
2017-Nov-16 09:06N 70°49' E 030°17'0 0.8
2017-Nov-16 09:00N 70°49' E 030°17'0 0.9
2017-Nov-16 08:30N 70°49' E 030°18'0 1.0
2017-Nov-16 08:00N 70°49' E 030°20'0 1.0
2017-Nov-16 07:30N 70°49' E 030°21'0 1.0
2017-Nov-16 07:00N 70°48' E 030°22'0 0.5
2017-Nov-16 06:30N 70°48' E 030°23'1 2.1
2017-Nov-16 06:00N 70°49' E 030°20'4 8.0
2017-Nov-16 05:30N 70°51' E 030°10'1 1.3
2017-Nov-16 05:00N 70°51' E 030°08'0 0.2
2017-Nov-16 04:30N 70°51' E 030°09'0 0.3
2017-Nov-16 04:01N 70°51' E 030°09'0 0.4
2017-Nov-16 03:30N 70°51' E 030°08'0 0.2
2017-Nov-16 03:00N 70°51' E 030°08'0 0.4
2017-Nov-16 02:30N 70°51' E 030°09'0 0.2
2017-Nov-16 02:00N 70°51' E 030°09'0 0.2
2017-Nov-16 01:30N 70°50' E 030°09'0 0.1
2017-Nov-16 01:00N 70°50' E 030°09'1 2.8
2017-Nov-16 00:30N 70°52' E 030°08'0 1.0
2017-Nov-16 00:00N 70°52' E 030°07'2 3.7
2017-Nov-15 23:30N 70°51' E 030°10'2 3.9
2017-Nov-15 23:00N 70°50' E 030°15'2 4.1
2017-Nov-15 22:30N 70°49' E 030°21'1 1.8
2017-Nov-15 22:00N 70°48' E 030°23'2 3.6
2017-Nov-15 21:30N 70°47' E 030°18'3 6.5
2017-Nov-15 21:00N 70°46' E 030°09'3 6.5
2017-Nov-15 20:30N 70°45' E 029°60'3 6.6
2017-Nov-15 20:00N 70°43' E 029°52'3 6.8
2017-Nov-15 19:30N 70°40' E 029°50'3 5.8
2017-Nov-15 19:00N 70°38' E 029°43'0 0.0
2017-Nov-15 18:30N 70°38' E 029°43'0 0.0
2017-Nov-15 18:00N 70°38' E 029°43'0 0.0
2017-Nov-15 17:30N 70°38' E 029°43'0 0.0
2017-Nov-15 17:00N 70°38' E 029°43'0 0.0
2017-Nov-15 16:30N 70°38' E 029°43'0 0.0
2017-Nov-15 16:00N 70°38' E 029°43'0 0.0
2017-Nov-15 15:30N 70°38' E 029°43'0 0.0
2017-Nov-15 15:00N 70°38' E 029°43'0 0.0
2017-Nov-15 14:31N 70°38' E 029°43'0 0.0
2017-Nov-15 14:00N 70°38' E 029°43'0 0.0
2017-Nov-15 13:30N 70°38' E 029°43'0 0.0
2017-Nov-15 13:00N 70°38' E 029°43'0 0.0
2017-Nov-15 12:30N 70°38' E 029°43'0 0.0
2017-Nov-15 12:00N 70°38' E 029°43'0 0.8
2017-Nov-15 11:30N 70°38' E 029°44'0 0.8
2017-Nov-15 11:00N 70°38' E 029°43'0 0.0
2017-Nov-15 10:30N 70°38' E 029°43'0 0.0
2017-Nov-15 10:00N 70°38' E 029°43'0 0.0
2017-Nov-15 09:30N 70°38' E 029°43'0 0.0
2017-Nov-15 09:00N 70°38' E 029°43'0 0.0
2017-Nov-15 08:30N 70°38' E 029°43'0 0.0
2017-Nov-15 08:00N 70°38' E 029°43'0 0.0
2017-Nov-15 07:30N 70°38' E 029°43'0 0.0
2017-Nov-15 07:00N 70°38' E 029°43'0 0.0
2017-Nov-15 06:30N 70°38' E 029°43'0 0.0
2017-Nov-15 06:00N 70°38' E 029°43'0 0.0
2017-Nov-15 05:30N 70°38' E 029°43'0 0.0
2017-Nov-15 04:59N 70°38' E 029°43'0 0.0
2017-Nov-15 04:30N 70°38' E 029°43'0 0.0
2017-Nov-15 03:59N 70°38' E 029°43'0 0.0
2017-Nov-15 03:30N 70°38' E 029°43'0 0.0
2017-Nov-15 03:00N 70°38' E 029°43'0 0.0
2017-Nov-15 02:30N 70°38' E 029°43'0 0.0
2017-Nov-15 02:00N 70°38' E 029°43'0 0.0
2017-Nov-15 01:30N 70°38' E 029°43'0 0.0
2017-Nov-15 01:00N 70°38' E 029°43'0 0.0
2017-Nov-15 00:30N 70°38' E 029°43'0 0.0
2017-Nov-15 00:00N 70°38' E 029°43'0 0.0
2017-Nov-14 23:29N 70°38' E 029°43'0 0.0
2017-Nov-14 22:59N 70°38' E 029°43'0 0.0
2017-Nov-14 22:30N 70°38' E 029°43'0 0.8
2017-Nov-14 22:00N 70°38' E 029°44'0 0.8
2017-Nov-14 21:30N 70°38' E 029°43'0 0.1
2017-Nov-14 21:00N 70°38' E 029°43'1 2.0
2017-Nov-14 20:30N 70°38' E 029°46'4 7.8
2017-Nov-14 20:00N 70°41' E 029°53'4 7.7
2017-Nov-14 19:30N 70°43' E 030°03'4 8.1
2017-Nov-14 19:00N 70°44' E 030°14'4 8.1
2017-Nov-14 18:30N 70°46' E 030°26'4 8.2
2017-Nov-14 18:00N 70°47' E 030°38'4 8.2
2017-Nov-14 17:30N 70°47' E 030°50'4 8.2
2017-Nov-14 17:00N 70°48' E 031°02'1 1.3
2017-Nov-14 16:30N 70°49' E 031°03'1 1.0
2017-Nov-14 16:00N 70°49' E 031°04'1 1.2
2017-Nov-14 15:30N 70°50' E 031°04'0 0.0
2017-Nov-14 06:16N 70°50' E 031°05'0 1.2
2017-Nov-14 06:00N 70°50' E 031°04'1 1.3
2017-Nov-14 05:30N 70°49' E 031°04'1 1.4
2017-Nov-14 05:00N 70°49' E 031°03'1 2.8
2017-Nov-14 04:30N 70°50' E 031°05'0 0.2
2017-Nov-14 02:21N 70°50' E 031°05'3 7.3
2017-Nov-14 02:00N 70°48' E 031°02'2 3.5
2017-Nov-14 01:30N 70°47' E 030°57'3 5.5
2017-Nov-14 01:00N 70°47' E 030°49'4 8.1
2017-Nov-14 00:30N 70°46' E 030°37'4 8.1
2017-Nov-14 00:00N 70°46' E 030°25'4 8.0
2017-Nov-13 23:30N 70°45' E 030°13'4 8.3
2017-Nov-13 23:00N 70°44' E 030°00'4 8.1
2017-Nov-13 22:30N 70°41' E 029°52'4 7.8
2017-Nov-13 22:00N 70°38' E 029°45'22 1.1
2017-Nov-13 02:00N 70°56' E 030°23'1 1.5
2017-Nov-13 01:30N 70°56' E 030°21'0 0.3
2017-Nov-13 01:00N 70°56' E 030°21'0 0.8
2017-Nov-13 00:30N 70°56' E 030°22'0 0.3
2017-Nov-13 00:00N 70°56' E 030°22'0 0.4
2017-Nov-12 23:30N 70°56' E 030°22'1 2.3
2017-Nov-12 23:00N 70°55' E 030°21'1 1.9
2017-Nov-12 22:30N 70°56' E 030°19'1 2.0
2017-Nov-12 22:00N 70°56' E 030°16'1 1.3
2017-Nov-12 21:30N 70°56' E 030°14'1 1.1
2017-Nov-12 21:00N 70°56' E 030°15'0 1.0
2017-Nov-12 20:30N 70°55' E 030°16'1 1.3
2017-Nov-12 20:00N 70°55' E 030°17'2 3.8
2017-Nov-12 19:30N 70°54' E 030°22'2 4.2
2017-Nov-12 19:00N 70°52' E 030°26'2 3.9
2017-Nov-12 18:30N 70°54' E 030°24'3 5.0
2017-Nov-12 18:00N 70°57' E 030°22'1 2.7
2017-Nov-12 17:30N 70°56' E 030°25'2 4.3
2017-Nov-12 17:00N 70°54' E 030°29'0 1.0
2017-Nov-12 16:30N 70°54' E 030°29'2 3.7
2017-Nov-12 16:00N 70°53' E 030°27'4 8.3
2017-Nov-12 15:30N 70°51' E 030°16'4 8.1
2017-Nov-12 15:00N 70°48' E 030°08'4 7.9
2017-Nov-12 14:30N 70°45' E 030°00'4 8.1
2017-Nov-12 14:00N 70°41' E 029°54'4 8.2
2017-Nov-12 13:30N 70°38' E 029°46'1 1.9
2017-Nov-12 12:59N 70°38' E 029°43'0 0.0
2017-Nov-12 12:30N 70°38' E 029°43'0 0.0
2017-Nov-12 12:00N 70°38' E 029°43'0 0.0
2017-Nov-12 11:30N 70°38' E 029°43'0 0.0
2017-Nov-12 11:00N 70°38' E 029°43'0 0.0
2017-Nov-12 10:30N 70°38' E 029°43'0 0.0
2017-Nov-12 10:00N 70°38' E 029°43'0 0.0
2017-Nov-12 09:30N 70°38' E 029°43'0 0.0
2017-Nov-12 09:00N 70°38' E 029°43'0 0.0
2017-Nov-12 08:30N 70°38' E 029°43'0 0.0
2017-Nov-12 08:00N 70°38' E 029°43'0 0.0
2017-Nov-12 07:30N 70°38' E 029°43'0 0.0
2017-Nov-12 07:00N 70°38' E 029°43'0 0.0
2017-Nov-12 06:30N 70°38' E 029°43'0 0.0
2017-Nov-12 06:00N 70°38' E 029°43'0 0.0
2017-Nov-12 05:30N 70°38' E 029°43'0 0.0
2017-Nov-12 05:00N 70°38' E 029°43'0 0.0
2017-Nov-12 04:30N 70°38' E 029°43'0 0.0
2017-Nov-12 04:00N 70°38' E 029°43'0 0.0
2017-Nov-12 03:30N 70°38' E 029°43'0 0.0
2017-Nov-12 03:00N 70°38' E 029°43'0 0.0
2017-Nov-12 02:30N 70°38' E 029°43'0 0.0
2017-Nov-12 02:00N 70°38' E 029°43'0 0.0
2017-Nov-12 01:30N 70°38' E 029°43'0 0.0
2017-Nov-12 01:00N 70°38' E 029°43'0 0.0
2017-Nov-12 00:30N 70°38' E 029°43'0 0.0
2017-Nov-12 00:01N 70°38' E 029°43'0 0.0
2017-Nov-11 23:30N 70°38' E 029°43'0 0.0
2017-Nov-11 23:00N 70°38' E 029°43'0 0.0
2017-Nov-11 22:30N 70°38' E 029°43'0 0.0
2017-Nov-11 22:00N 70°38' E 029°43'0 0.0
2017-Nov-11 21:30N 70°38' E 029°43'0 0.0
2017-Nov-11 21:00N 70°38' E 029°43'0 0.0
2017-Nov-11 20:30N 70°38' E 029°43'0 0.0
2017-Nov-11 20:00N 70°38' E 029°43'0 0.0
2017-Nov-11 19:30N 70°38' E 029°43'0 0.0
2017-Nov-11 19:00N 70°38' E 029°43'0 0.0
2017-Nov-11 18:30N 70°38' E 029°43'0 0.0
2017-Nov-11 18:00N 70°38' E 029°43'0 0.0
2017-Nov-11 17:30N 70°38' E 029°43'0 0.0
2017-Nov-11 17:00N 70°38' E 029°43'0 0.0
2017-Nov-11 16:30N 70°38' E 029°43'0 0.0
2017-Nov-11 16:00N 70°38' E 029°43'0 0.0
2017-Nov-11 15:30N 70°38' E 029°43'0 0.0
2017-Nov-11 15:00N 70°38' E 029°43'0 0.0
2017-Nov-11 14:30N 70°38' E 029°43'0 0.0
2017-Nov-11 14:00N 70°38' E 029°43'0 0.0
2017-Nov-11 13:31N 70°38' E 029°43'0 0.0
2017-Nov-11 13:00N 70°38' E 029°43'0 0.0
2017-Nov-11 12:30N 70°38' E 029°43'0 0.0
2017-Nov-11 12:01N 70°38' E 029°43'0 0.0
2017-Nov-11 11:30N 70°38' E 029°43'0 0.0
2017-Nov-11 11:00N 70°38' E 029°43'0 0.0
2017-Nov-11 10:30N 70°38' E 029°43'0 0.0
2017-Nov-11 10:00N 70°38' E 029°43'0 0.0
2017-Nov-11 09:30N 70°38' E 029°43'0 0.0
2017-Nov-11 09:01N 70°38' E 029°43'0 0.0
2017-Nov-11 08:30N 70°38' E 029°43'0 0.0
2017-Nov-11 08:00N 70°38' E 029°43'0 0.0
2017-Nov-11 07:30N 70°38' E 029°43'0 0.0
2017-Nov-11 07:00N 70°38' E 029°43'0 0.0
2017-Nov-11 06:30N 70°38' E 029°43'0 0.0
2017-Nov-11 06:01N 70°38' E 029°43'0 0.0
2017-Nov-11 05:30N 70°38' E 029°43'0 0.0
2017-Nov-11 05:00N 70°38' E 029°43'0 0.0
2017-Nov-11 04:30N 70°38' E 029°43'0 0.0
2017-Nov-11 04:00N 70°38' E 029°43'0 0.0
2017-Nov-11 03:30N 70°38' E 029°43'0 0.0
2017-Nov-11 03:00N 70°38' E 029°43'0 0.0
2017-Nov-11 02:30N 70°38' E 029°43'0 0.0
2017-Nov-11 02:00N 70°38' E 029°43'0 0.0
2017-Nov-11 01:30N 70°38' E 029°43'0 0.0
2017-Nov-11 01:00N 70°38' E 029°43'0 0.0
2017-Nov-11 00:30N 70°38' E 029°43'0 0.0
2017-Nov-10 23:59N 70°38' E 029°43'0 0.0
2017-Nov-10 23:30N 70°38' E 029°43'0 0.0
2017-Nov-10 23:00N 70°38' E 029°43'0 0.0
2017-Nov-10 22:30N 70°38' E 029°43'0 0.0
2017-Nov-10 22:00N 70°38' E 029°43'0 0.0
2017-Nov-10 21:30N 70°38' E 029°43'0 0.0
2017-Nov-10 21:00N 70°38' E 029°43'0 0.0
2017-Nov-10 20:30N 70°38' E 029°43'0 0.0
2017-Nov-10 20:00N 70°38' E 029°43'0 0.0
2017-Nov-10 19:30N 70°38' E 029°43'0 0.0
2017-Nov-10 19:00N 70°38' E 029°43'0 0.0
2017-Nov-10 18:30N 70°38' E 029°43'0 0.0
2017-Nov-10 18:01N 70°38' E 029°43'0 0.0
2017-Nov-10 17:30N 70°38' E 029°43'0 0.0
2017-Nov-10 17:00N 70°38' E 029°43'0 0.0
2017-Nov-10 16:30N 70°38' E 029°43'0 0.0
2017-Nov-10 16:00N 70°38' E 029°43'0 0.0
2017-Nov-10 15:30N 70°38' E 029°43'0 0.0
2017-Nov-10 15:00N 70°38' E 029°43'0 0.0
2017-Nov-10 14:30N 70°38' E 029°43'0 0.0
2017-Nov-10 14:00N 70°38' E 029°43'0 0.0
2017-Nov-10 13:30N 70°38' E 029°43'0 0.0
2017-Nov-10 13:00N 70°38' E 029°43'0 0.0
2017-Nov-10 12:30N 70°38' E 029°43'0 0.0
2017-Nov-10 12:00N 70°38' E 029°43'0 0.0
2017-Nov-10 11:30N 70°38' E 029°43'0 0.0
2017-Nov-10 11:00N 70°38' E 029°43'0 0.0
2017-Nov-10 10:30N 70°38' E 029°43'0 0.0
2017-Nov-10 10:00N 70°38' E 029°43'0 0.0
2017-Nov-10 09:30N 70°38' E 029°43'0 0.0
2017-Nov-10 09:00N 70°38' E 029°43'0 0.0
2017-Nov-10 08:30N 70°38' E 029°43'0 0.0
2017-Nov-10 08:00N 70°38' E 029°43'0 0.0
2017-Nov-10 07:30N 70°38' E 029°43'0 0.0
2017-Nov-10 07:00N 70°38' E 029°43'0 0.0
2017-Nov-10 06:30N 70°38' E 029°43'0 0.0
2017-Nov-10 06:00N 70°38' E 029°43'0 0.0
2017-Nov-10 04:14N 70°38' E 029°43'0 0.0
2017-Nov-10 04:00N 70°38' E 029°43'0 0.0
2017-Nov-10 03:30N 70°38' E 029°43'0 0.0
2017-Nov-10 03:00N 70°38' E 029°43'0 0.0
2017-Nov-10 02:30N 70°38' E 029°43'0 0.0
2017-Nov-10 02:00N 70°38' E 029°43'0 0.0
2017-Nov-10 01:30N 70°38' E 029°43'0 0.0
2017-Nov-10 01:00N 70°38' E 029°43'0 0.0
2017-Nov-10 00:30N 70°38' E 029°43'0 0.0
2017-Nov-10 00:00N 70°38' E 029°43'0 0.0
2017-Nov-09 23:30N 70°38' E 029°43'0 0.0
2017-Nov-09 22:59N 70°38' E 029°43'0 0.0
2017-Nov-09 22:30N 70°38' E 029°43'0 0.0
2017-Nov-09 22:00N 70°38' E 029°43'0 0.0
2017-Nov-09 21:29N 70°38' E 029°43'0 0.0
2017-Nov-09 21:00N 70°38' E 029°43'0 0.0
2017-Nov-09 20:30N 70°38' E 029°43'0 0.0
2017-Nov-09 19:59N 70°38' E 029°43'0 0.0
2017-Nov-09 19:30N 70°38' E 029°43'0 0.0
2017-Nov-09 19:00N 70°38' E 029°43'0 0.0
2017-Nov-09 18:30N 70°38' E 029°43'0 0.0
2017-Nov-09 18:00N 70°38' E 029°43'0 0.0
2017-Nov-09 17:30N 70°38' E 029°43'0 0.0
2017-Nov-09 17:00N 70°38' E 029°43'0 0.0
2017-Nov-09 16:30N 70°38' E 029°43'0 0.0
2017-Nov-09 16:00N 70°38' E 029°43'0 0.0
2017-Nov-09 15:30N 70°38' E 029°43'0 0.0
2017-Nov-09 15:00N 70°38' E 029°43'0 0.0
2017-Nov-09 14:30N 70°38' E 029°43'0 0.0
2017-Nov-09 14:00N 70°38' E 029°43'0 0.0
2017-Nov-09 13:30N 70°38' E 029°43'0 0.0
2017-Nov-09 13:00N 70°38' E 029°43'0 0.0
2017-Nov-09 12:30N 70°38' E 029°43'0 0.0
2017-Nov-09 12:00N 70°38' E 029°43'0 0.0
2017-Nov-09 11:30N 70°38' E 029°43'0 0.0
2017-Nov-09 11:00N 70°38' E 029°43'0 0.0
2017-Nov-09 10:30N 70°38' E 029°43'0 0.0
2017-Nov-09 10:00N 70°38' E 029°43'0 0.0
2017-Nov-09 09:30N 70°38' E 029°43'0 0.0
2017-Nov-09 09:00N 70°38' E 029°43'0 0.0
2017-Nov-09 08:30N 70°38' E 029°43'0 0.0
2017-Nov-09 07:59N 70°38' E 029°43'0 0.0
2017-Nov-09 07:30N 70°38' E 029°43'0 0.0
2017-Nov-09 07:00N 70°38' E 029°43'0 0.0
2017-Nov-09 06:29N 70°38' E 029°43'0 0.0
2017-Nov-09 06:00N 70°38' E 029°43'0 0.0
2017-Nov-09 05:30N 70°38' E 029°43'0 0.0
2017-Nov-09 05:00N 70°38' E 029°43'0 0.0
2017-Nov-09 04:30N 70°38' E 029°43'0 0.0
2017-Nov-09 04:00N 70°38' E 029°43'0 0.0
2017-Nov-09 03:30N 70°38' E 029°43'0 0.0
2017-Nov-09 03:00N 70°38' E 029°43'0 0.0
2017-Nov-09 02:30N 70°38' E 029°43'0 0.0
2017-Nov-09 01:59N 70°38' E 029°43'0 0.0
2017-Nov-09 01:30N 70°38' E 029°43'0 0.0
2017-Nov-09 01:00N 70°38' E 029°43'0 0.0
2017-Nov-09 00:30N 70°38' E 029°43'0 0.0
2017-Nov-09 00:00N 70°38' E 029°43'0 0.0
2017-Nov-08 23:30N 70°38' E 029°43'0 0.0
2017-Nov-08 23:00N 70°38' E 029°43'0 0.0
2017-Nov-08 22:30N 70°38' E 029°43'0 0.0
2017-Nov-08 22:00N 70°38' E 029°43'0 0.0
2017-Nov-08 21:30N 70°38' E 029°43'0 0.0
2017-Nov-08 21:00N 70°38' E 029°43'0 0.0
2017-Nov-08 20:30N 70°38' E 029°43'0 0.0
2017-Nov-08 20:00N 70°38' E 029°43'0 0.0
2017-Nov-08 19:30N 70°38' E 029°43'0 0.0
2017-Nov-08 19:00N 70°38' E 029°43'0 0.0
2017-Nov-08 18:30N 70°38' E 029°43'0 0.0
2017-Nov-08 18:00N 70°38' E 029°43'0 0.0
2017-Nov-08 17:30N 70°38' E 029°43'0 0.0
2017-Nov-08 17:00N 70°38' E 029°43'0 0.0
2017-Nov-08 16:30N 70°38' E 029°43'0 0.0
2017-Nov-08 16:00N 70°38' E 029°43'0 0.0
2017-Nov-08 15:30N 70°38' E 029°43'0 0.0
2017-Nov-08 15:00N 70°38' E 029°43'0 0.0
2017-Nov-08 14:30N 70°38' E 029°43'0 0.0
2017-Nov-08 14:00N 70°38' E 029°43'0 0.0
2017-Nov-08 13:30N 70°38' E 029°43'0 0.0
2017-Nov-08 13:00N 70°38' E 029°43'0 0.0
2017-Nov-08 12:30N 70°38' E 029°43'0 0.0
2017-Nov-08 12:00N 70°38' E 029°43'0 0.0
2017-Nov-08 11:30N 70°38' E 029°43'0 0.0
2017-Nov-08 11:00N 70°38' E 029°43'0 0.0
2017-Nov-08 10:30N 70°38' E 029°43'0 0.0
2017-Nov-08 10:00N 70°38' E 029°43'0 0.0
2017-Nov-08 09:30N 70°38' E 029°43'0 0.0
2017-Nov-08 09:00N 70°38' E 029°43'0 0.0
2017-Nov-08 08:30N 70°38' E 029°43'0 0.0
2017-Nov-08 08:00N 70°38' E 029°43'0 0.0
2017-Nov-08 07:30N 70°38' E 029°43'0 0.0
2017-Nov-08 07:00N 70°38' E 029°43'0 0.0
2017-Nov-08 06:30N 70°38' E 029°43'0 0.0
2017-Nov-08 06:00N 70°38' E 029°43'0 0.0
2017-Nov-08 05:30N 70°38' E 029°43'0 0.0
2017-Nov-08 05:00N 70°38' E 029°43'0 0.0
2017-Nov-08 04:30N 70°38' E 029°43'0 0.0
2017-Nov-08 04:00N 70°38' E 029°43'0 0.0
2017-Nov-08 03:30N 70°38' E 029°43'0 0.0
2017-Nov-08 03:00N 70°38' E 029°43'0 0.0
2017-Nov-08 02:30N 70°38' E 029°43'0 0.0
2017-Nov-08 02:00N 70°38' E 029°43'0 0.0
2017-Nov-08 01:30N 70°38' E 029°43'0 0.0
2017-Nov-08 01:00N 70°38' E 029°43'0 0.0
2017-Nov-08 00:30N 70°38' E 029°43'0 0.0
2017-Nov-08 00:00N 70°38' E 029°43'0 0.0
2017-Nov-07 23:30N 70°38' E 029°43'0 0.0
2017-Nov-07 23:00N 70°38' E 029°43'0 0.0
2017-Nov-07 22:30N 70°38' E 029°43'0 0.0
2017-Nov-07 22:00N 70°38' E 029°43'0 0.0
2017-Nov-07 21:30N 70°38' E 029°43'0 0.0
2017-Nov-07 21:00N 70°38' E 029°43'0 0.0
2017-Nov-07 20:30N 70°38' E 029°43'0 0.0
2017-Nov-07 19:59N 70°38' E 029°43'0 0.0
2017-Nov-07 19:30N 70°38' E 029°43'0 0.0
2017-Nov-07 19:00N 70°38' E 029°43'0 0.0
2017-Nov-07 18:29N 70°38' E 029°43'0 0.0
2017-Nov-07 18:00N 70°38' E 029°43'0 0.0
2017-Nov-07 17:30N 70°38' E 029°43'0 0.0
2017-Nov-07 16:59N 70°38' E 029°43'0 0.0
2017-Nov-07 16:30N 70°38' E 029°43'0 0.0
2017-Nov-07 16:00N 70°38' E 029°43'0 0.0
2017-Nov-07 15:29N 70°38' E 029°43'0 0.0
2017-Nov-07 15:00N 70°38' E 029°43'0 0.0
2017-Nov-07 14:30N 70°38' E 029°43'0 0.0
2017-Nov-07 14:00N 70°38' E 029°43'0 0.0
2017-Nov-07 13:30N 70°38' E 029°43'0 0.0
2017-Nov-07 13:00N 70°38' E 029°43'0 0.0
2017-Nov-07 12:30N 70°38' E 029°43'0 0.0
2017-Nov-07 12:00N 70°38' E 029°43'0 0.0
2017-Nov-07 11:30N 70°38' E 029°43'0 0.0
2017-Nov-07 11:00N 70°38' E 029°43'0 0.0
2017-Nov-07 10:30N 70°38' E 029°43'0 0.0
2017-Nov-07 10:00N 70°38' E 029°43'0 0.0
2017-Nov-07 09:30N 70°38' E 029°43'0 0.0
2017-Nov-07 09:00N 70°38' E 029°43'0 0.0
2017-Nov-07 08:30N 70°38' E 029°43'0 0.0
2017-Nov-07 08:00N 70°38' E 029°43'0 0.0
2017-Nov-07 07:30N 70°38' E 029°43'0 0.0
2017-Nov-07 07:00N 70°38' E 029°43'0 0.0
2017-Nov-07 06:30N 70°38' E 029°43'0 0.0
2017-Nov-07 06:00N 70°38' E 029°43'0 0.0
2017-Nov-07 05:30N 70°38' E 029°43'0 0.0
2017-Nov-07 05:00N 70°38' E 029°43'0 0.0
2017-Nov-07 04:30N 70°38' E 029°43'0 0.0
2017-Nov-07 04:00N 70°38' E 029°43'0 0.0
2017-Nov-07 03:29N 70°38' E 029°43'0 0.0
2017-Nov-07 03:00N 70°38' E 029°43'0 0.0
2017-Nov-07 02:30N 70°38' E 029°43'0 0.0
2017-Nov-07 02:00N 70°38' E 029°43'0 0.0
2017-Nov-07 01:30N 70°38' E 029°43'0 0.0
2017-Nov-07 01:00N 70°38' E 029°43'0 0.0
2017-Nov-07 00:30N 70°38' E 029°43'0 0.0
2017-Nov-07 00:00N 70°38' E 029°43'0 0.0
2017-Nov-06 23:30N 70°38' E 029°43'0 0.0
2017-Nov-06 23:00N 70°38' E 029°43'0 0.0
2017-Nov-06 22:30N 70°38' E 029°43'0 0.0
2017-Nov-06 22:00N 70°38' E 029°43'0 0.0
2017-Nov-06 21:30N 70°38' E 029°43'0 0.0
2017-Nov-06 21:00N 70°38' E 029°43'0 0.0
2017-Nov-06 20:30N 70°38' E 029°43'  
Track history (hours):
 
Tides and Currents Weather Stations Pressure Air Temp Water Temp Dewpoint Dewpoint Depression Visibility Wind Speed Wind Dir Waves Ship Positions

Oytind

Last reported at 2017-Nov-16 09:06 UTC. Time now 2017-Nov-17 23:14 UTC.
Position N 70°49' E 030°17'.

Length 12 m.

Type: Fishing. MMSI: 257350520.

Date/timePositionNaut miles runAvg speedWind from/ knotsBaromVisibWave heightAir tempDewpointWater temp
2017-Nov-16 09:06N 70°49' E 030°17'0 0.8
2017-Nov-16 09:00N 70°49' E 030°17'0 0.9
2017-Nov-16 08:30N 70°49' E 030°18'0 1.0
2017-Nov-16 08:00N 70°49' E 030°20'0 1.0
2017-Nov-16 07:30N 70°49' E 030°21'0 1.0
2017-Nov-16 07:00N 70°48' E 030°22'0 0.5
2017-Nov-16 06:30N 70°48' E 030°23'1 2.1
2017-Nov-16 06:00N 70°49' E 030°20'4 8.0
2017-Nov-16 05:30N 70°51' E 030°10'1 1.3
2017-Nov-16 05:00N 70°51' E 030°08'0 0.2
2017-Nov-16 04:30N 70°51' E 030°09'0 0.3
2017-Nov-16 04:01N 70°51' E 030°09'0 0.4
2017-Nov-16 03:30N 70°51' E 030°08'0 0.2
2017-Nov-16 03:00N 70°51' E 030°08'0 0.4
2017-Nov-16 02:30N 70°51' E 030°09'0 0.2
2017-Nov-16 02:00N 70°51' E 030°09'0 0.2
2017-Nov-16 01:30N 70°50' E 030°09'0 0.1
2017-Nov-16 01:00N 70°50' E 030°09'1 2.8
2017-Nov-16 00:30N 70°52' E 030°08'0 1.0
2017-Nov-16 00:00N 70°52' E 030°07'2 3.7
2017-Nov-15 23:30N 70°51' E 030°10'2 3.9
2017-Nov-15 23:00N 70°50' E 030°15'2 4.1
2017-Nov-15 22:30N 70°49' E 030°21'1 1.8
2017-Nov-15 22:00N 70°48' E 030°23'2 3.6
2017-Nov-15 21:30N 70°47' E 030°18'3 6.5
2017-Nov-15 21:00N 70°46' E 030°09'3 6.5
2017-Nov-15 20:30N 70°45' E 029°60'3 6.6
2017-Nov-15 20:00N 70°43' E 029°52'3 6.8
2017-Nov-15 19:30N 70°40' E 029°50'3 5.8
2017-Nov-15 19:00N 70°38' E 029°43'0 0.0
2017-Nov-15 18:30N 70°38' E 029°43'0 0.0
2017-Nov-15 18:00N 70°38' E 029°43'0 0.0
2017-Nov-15 17:30N 70°38' E 029°43'0 0.0
2017-Nov-15 17:00N 70°38' E 029°43'0 0.0
2017-Nov-15 16:30N 70°38' E 029°43'0 0.0
2017-Nov-15 16:00N 70°38' E 029°43'0 0.0
2017-Nov-15 15:30N 70°38' E 029°43'0 0.0
2017-Nov-15 15:00N 70°38' E 029°43'0 0.0
2017-Nov-15 14:31N 70°38' E 029°43'0 0.0
2017-Nov-15 14:00N 70°38' E 029°43'0 0.0
2017-Nov-15 13:30N 70°38' E 029°43'0 0.0
2017-Nov-15 13:00N 70°38' E 029°43'0 0.0
2017-Nov-15 12:30N 70°38' E 029°43'0 0.0
2017-Nov-15 12:00N 70°38' E 029°43'0 0.8
2017-Nov-15 11:30N 70°38' E 029°44'0 0.8
2017-Nov-15 11:00N 70°38' E 029°43'0 0.0
2017-Nov-15 10:30N 70°38' E 029°43'0 0.0
2017-Nov-15 10:00N 70°38' E 029°43'0 0.0
2017-Nov-15 09:30N 70°38' E 029°43'0 0.0
2017-Nov-15 09:00N 70°38' E 029°43'0 0.0
2017-Nov-15 08:30N 70°38' E 029°43'0 0.0
2017-Nov-15 08:00N 70°38' E 029°43'0 0.0
2017-Nov-15 07:30N 70°38' E 029°43'0 0.0
2017-Nov-15 07:00N 70°38' E 029°43'0 0.0
2017-Nov-15 06:30N 70°38' E 029°43'0 0.0
2017-Nov-15 06:00N 70°38' E 029°43'0 0.0
2017-Nov-15 05:30N 70°38' E 029°43'0 0.0
2017-Nov-15 04:59N 70°38' E 029°43'0 0.0
2017-Nov-15 04:30N 70°38' E 029°43'0 0.0
2017-Nov-15 03:59N 70°38' E 029°43'0 0.0
2017-Nov-15 03:30N 70°38' E 029°43'0 0.0
2017-Nov-15 03:00N 70°38' E 029°43'0 0.0
2017-Nov-15 02:30N 70°38' E 029°43'0 0.0
2017-Nov-15 02:00N 70°38' E 029°43'0 0.0
2017-Nov-15 01:30N 70°38' E 029°43'0 0.0
2017-Nov-15 01:00N 70°38' E 029°43'0 0.0
2017-Nov-15 00:30N 70°38' E 029°43'0 0.0
2017-Nov-15 00:00N 70°38' E 029°43'0 0.0
2017-Nov-14 23:29N 70°38' E 029°43'0 0.0
2017-Nov-14 22:59N 70°38' E 029°43'0 0.0
2017-Nov-14 22:30N 70°38' E 029°43'0 0.8
2017-Nov-14 22:00N 70°38' E 029°44'0 0.8
2017-Nov-14 21:30N 70°38' E 029°43'0 0.1
2017-Nov-14 21:00N 70°38' E 029°43'1 2.0
2017-Nov-14 20:30N 70°38' E 029°46'4 7.8
2017-Nov-14 20:00N 70°41' E 029°53'4 7.7
2017-Nov-14 19:30N 70°43' E 030°03'4 8.1
2017-Nov-14 19:00N 70°44' E 030°14'4 8.1
2017-Nov-14 18:30N 70°46' E 030°26'4 8.2
2017-Nov-14 18:00N 70°47' E 030°38'4 8.2
2017-Nov-14 17:30N 70°47' E 030°50'4 8.2
2017-Nov-14 17:00N 70°48' E 031°02'1 1.3
2017-Nov-14 16:30N 70°49' E 031°03'1 1.0
2017-Nov-14 16:00N 70°49' E 031°04'1 1.2
2017-Nov-14 15:30N 70°50' E 031°04'0 0.0
2017-Nov-14 06:16N 70°50' E 031°05'0 1.2
2017-Nov-14 06:00N 70°50' E 031°04'1 1.3
2017-Nov-14 05:30N 70°49' E 031°04'1 1.4
2017-Nov-14 05:00N 70°49' E 031°03'1 2.8
2017-Nov-14 04:30N 70°50' E 031°05'0 0.2
2017-Nov-14 02:21N 70°50' E 031°05'3 7.3
2017-Nov-14 02:00N 70°48' E 031°02'2 3.5
2017-Nov-14 01:30N 70°47' E 030°57'3 5.5
2017-Nov-14 01:00N 70°47' E 030°49'4 8.1
2017-Nov-14 00:30N 70°46' E 030°37'4 8.1
2017-Nov-14 00:00N 70°46' E 030°25'4 8.0
2017-Nov-13 23:30N 70°45' E 030°13'4 8.3
2017-Nov-13 23:00N 70°44' E 030°00'4 8.1
2017-Nov-13 22:30N 70°41' E 029°52'4 7.8
2017-Nov-13 22:00N 70°38' E 029°45'22 1.1
2017-Nov-13 02:00N 70°56' E 030°23'1 1.5
2017-Nov-13 01:30N 70°56' E 030°21'0 0.3
2017-Nov-13 01:00N 70°56' E 030°21'0 0.8
2017-Nov-13 00:30N 70°56' E 030°22'0 0.3
2017-Nov-13 00:00N 70°56' E 030°22'0 0.4
2017-Nov-12 23:30N 70°56' E 030°22'1 2.3
2017-Nov-12 23:00N 70°55' E 030°21'1 1.9
2017-Nov-12 22:30N 70°56' E 030°19'1 2.0
2017-Nov-12 22:00N 70°56' E 030°16'1 1.3
2017-Nov-12 21:30N 70°56' E 030°14'1 1.1
2017-Nov-12 21:00N 70°56' E 030°15'0 1.0
2017-Nov-12 20:30N 70°55' E 030°16'1 1.3
2017-Nov-12 20:00N 70°55' E 030°17'2 3.8
2017-Nov-12 19:30N 70°54' E 030°22'2 4.2
2017-Nov-12 19:00N 70°52' E 030°26'2 3.9
2017-Nov-12 18:30N 70°54' E 030°24'3 5.0
2017-Nov-12 18:00N 70°57' E 030°22'1 2.7
2017-Nov-12 17:30N 70°56' E 030°25'2 4.3
2017-Nov-12 17:00N 70°54' E 030°29'0 1.0
2017-Nov-12 16:30N 70°54' E 030°29'2 3.7
2017-Nov-12 16:00N 70°53' E 030°27'4 8.3
2017-Nov-12 15:30N 70°51' E 030°16'4 8.1
2017-Nov-12 15:00N 70°48' E 030°08'4 7.9
2017-Nov-12 14:30N 70°45' E 030°00'4 8.1
2017-Nov-12 14:00N 70°41' E 029°54'4 8.2
2017-Nov-12 13:30N 70°38' E 029°46'1 1.9
2017-Nov-12 12:59N 70°38' E 029°43'0 0.0
2017-Nov-12 12:30N 70°38' E 029°43'0 0.0
2017-Nov-12 12:00N 70°38' E 029°43'0 0.0
2017-Nov-12 11:30N 70°38' E 029°43'0 0.0
2017-Nov-12 11:00N 70°38' E 029°43'0 0.0
2017-Nov-12 10:30N 70°38' E 029°43'0 0.0
2017-Nov-12 10:00N 70°38' E 029°43'0 0.0
2017-Nov-12 09:30N 70°38' E 029°43'0 0.0
2017-Nov-12 09:00N 70°38' E 029°43'0 0.0
2017-Nov-12 08:30N 70°38' E 029°43'0 0.0
2017-Nov-12 08:00N 70°38' E 029°43'0 0.0
2017-Nov-12 07:30N 70°38' E 029°43'0 0.0
2017-Nov-12 07:00N 70°38' E 029°43'0 0.0
2017-Nov-12 06:30N 70°38' E 029°43'0 0.0
2017-Nov-12 06:00N 70°38' E 029°43'0 0.0
2017-Nov-12 05:30N 70°38' E 029°43'0 0.0
2017-Nov-12 05:00N 70°38' E 029°43'0 0.0
2017-Nov-12 04:30N 70°38' E 029°43'0 0.0
2017-Nov-12 04:00N 70°38' E 029°43'0 0.0
2017-Nov-12 03:30N 70°38' E 029°43'0 0.0
2017-Nov-12 03:00N 70°38' E 029°43'0 0.0
2017-Nov-12 02:30N 70°38' E 029°43'0 0.0
2017-Nov-12 02:00N 70°38' E 029°43'0 0.0
2017-Nov-12 01:30N 70°38' E 029°43'0 0.0
2017-Nov-12 01:00N 70°38' E 029°43'0 0.0
2017-Nov-12 00:30N 70°38' E 029°43'0 0.0
2017-Nov-12 00:01N 70°38' E 029°43'0 0.0
2017-Nov-11 23:30N 70°38' E 029°43'0 0.0
2017-Nov-11 23:00N 70°38' E 029°43'0 0.0
2017-Nov-11 22:30N 70°38' E 029°43'0 0.0
2017-Nov-11 22:00N 70°38' E 029°43'0 0.0
2017-Nov-11 21:30N 70°38' E 029°43'0 0.0
2017-Nov-11 21:00N 70°38' E 029°43'0 0.0
2017-Nov-11 20:30N 70°38' E 029°43'0 0.0
2017-Nov-11 20:00N 70°38' E 029°43'0 0.0
2017-Nov-11 19:30N 70°38' E 029°43'0 0.0
2017-Nov-11 19:00N 70°38' E 029°43'0 0.0
2017-Nov-11 18:30N 70°38' E 029°43'0 0.0
2017-Nov-11 18:00N 70°38' E 029°43'0 0.0
2017-Nov-11 17:30N 70°38' E 029°43'0 0.0
2017-Nov-11 17:00N 70°38' E 029°43'0 0.0
2017-Nov-11 16:30N 70°38' E 029°43'0 0.0
2017-Nov-11 16:00N 70°38' E 029°43'0 0.0
2017-Nov-11 15:30N 70°38' E 029°43'0 0.0
2017-Nov-11 15:00N 70°38' E 029°43'0 0.0
2017-Nov-11 14:30N 70°38' E 029°43'0 0.0
2017-Nov-11 14:00N 70°38' E 029°43'0 0.0
2017-Nov-11 13:31N 70°38' E 029°43'0 0.0
2017-Nov-11 13:00N 70°38' E 029°43'0 0.0
2017-Nov-11 12:30N 70°38' E 029°43'0 0.0
2017-Nov-11 12:01N 70°38' E 029°43'0 0.0
2017-Nov-11 11:30N 70°38' E 029°43'0 0.0
2017-Nov-11 11:00N 70°38' E 029°43'0 0.0
2017-Nov-11 10:30N 70°38' E 029°43'0 0.0
2017-Nov-11 10:00N 70°38' E 029°43'0 0.0
2017-Nov-11 09:30N 70°38' E 029°43'0 0.0
2017-Nov-11 09:01N 70°38' E 029°43'0 0.0
2017-Nov-11 08:30N 70°38' E 029°43'0 0.0
2017-Nov-11 08:00N 70°38' E 029°43'0 0.0
2017-Nov-11 07:30N 70°38' E 029°43'0 0.0
2017-Nov-11 07:00N 70°38' E 029°43'0 0.0
2017-Nov-11 06:30N 70°38' E 029°43'0 0.0
2017-Nov-11 06:01N 70°38' E 029°43'0 0.0
2017-Nov-11 05:30N 70°38' E 029°43'0 0.0
2017-Nov-11 05:00N 70°38' E 029°43'0 0.0
2017-Nov-11 04:30N 70°38' E 029°43'0 0.0
2017-Nov-11 04:00N 70°38' E 029°43'0 0.0
2017-Nov-11 03:30N 70°38' E 029°43'0 0.0
2017-Nov-11 03:00N 70°38' E 029°43'0 0.0
2017-Nov-11 02:30N 70°38' E 029°43'0 0.0
2017-Nov-11 02:00N 70°38' E 029°43'0 0.0
2017-Nov-11 01:30N 70°38' E 029°43'0 0.0
2017-Nov-11 01:00N 70°38' E 029°43'0 0.0
2017-Nov-11 00:30N 70°38' E 029°43'0 0.0
2017-Nov-10 23:59N 70°38' E 029°43'0 0.0
2017-Nov-10 23:30N 70°38' E 029°43'0 0.0
2017-Nov-10 23:00N 70°38' E 029°43'0 0.0
2017-Nov-10 22:30N 70°38' E 029°43'0 0.0
2017-Nov-10 22:00N 70°38' E 029°43'0 0.0
2017-Nov-10 21:30N 70°38' E 029°43'0 0.0
2017-Nov-10 21:00N 70°38' E 029°43'0 0.0
2017-Nov-10 20:30N 70°38' E 029°43'0 0.0
2017-Nov-10 20:00N 70°38' E 029°43'0 0.0
2017-Nov-10 19:30N 70°38' E 029°43'0 0.0
2017-Nov-10 19:00N 70°38' E 029°43'0 0.0
2017-Nov-10 18:30N 70°38' E 029°43'0 0.0
2017-Nov-10 18:01N 70°38' E 029°43'0 0.0
2017-Nov-10 17:30N 70°38' E 029°43'0 0.0
2017-Nov-10 17:00N 70°38' E 029°43'0 0.0
2017-Nov-10 16:30N 70°38' E 029°43'0 0.0
2017-Nov-10 16:00N 70°38' E 029°43'0 0.0
2017-Nov-10 15:30N 70°38' E 029°43'0 0.0
2017-Nov-10 15:00N 70°38' E 029°43'0 0.0
2017-Nov-10 14:30N 70°38' E 029°43'0 0.0
2017-Nov-10 14:00N 70°38' E 029°43'0 0.0
2017-Nov-10 13:30N 70°38' E 029°43'0 0.0
2017-Nov-10 13:00N 70°38' E 029°43'0 0.0
2017-Nov-10 12:30N 70°38' E 029°43'0 0.0
2017-Nov-10 12:00N 70°38' E 029°43'0 0.0
2017-Nov-10 11:30N 70°38' E 029°43'0 0.0
2017-Nov-10 11:00N 70°38' E 029°43'0 0.0
2017-Nov-10 10:30N 70°38' E 029°43'0 0.0
2017-Nov-10 10:00N 70°38' E 029°43'0 0.0
2017-Nov-10 09:30N 70°38' E 029°43'0 0.0
2017-Nov-10 09:00N 70°38' E 029°43'0 0.0
2017-Nov-10 08:30N 70°38' E 029°43'0 0.0
2017-Nov-10 08:00N 70°38' E 029°43'0 0.0
2017-Nov-10 07:30N 70°38' E 029°43'0 0.0
2017-Nov-10 07:00N 70°38' E 029°43'0 0.0
2017-Nov-10 06:30N 70°38' E 029°43'0 0.0
2017-Nov-10 06:00N 70°38' E 029°43'0 0.0
2017-Nov-10 04:14N 70°38' E 029°43'0 0.0
2017-Nov-10 04:00N 70°38' E 029°43'0 0.0
2017-Nov-10 03:30N 70°38' E 029°43'0 0.0
2017-Nov-10 03:00N 70°38' E 029°43'0 0.0
2017-Nov-10 02:30N 70°38' E 029°43'0 0.0
2017-Nov-10 02:00N 70°38' E 029°43'0 0.0
2017-Nov-10 01:30N 70°38' E 029°43'0 0.0
2017-Nov-10 01:00N 70°38' E 029°43'0 0.0
2017-Nov-10 00:30N 70°38' E 029°43'0 0.0
2017-Nov-10 00:00N 70°38' E 029°43'0 0.0
2017-Nov-09 23:30N 70°38' E 029°43'0 0.0
2017-Nov-09 22:59N 70°38' E 029°43'0 0.0
2017-Nov-09 22:30N 70°38' E 029°43'0 0.0
2017-Nov-09 22:00N 70°38' E 029°43'0 0.0
2017-Nov-09 21:29N 70°38' E 029°43'0 0.0
2017-Nov-09 21:00N 70°38' E 029°43'0 0.0
2017-Nov-09 20:30N 70°38' E 029°43'0 0.0
2017-Nov-09 19:59N 70°38' E 029°43'0 0.0
2017-Nov-09 19:30N 70°38' E 029°43'0 0.0
2017-Nov-09 19:00N 70°38' E 029°43'0 0.0
2017-Nov-09 18:30N 70°38' E 029°43'0 0.0
2017-Nov-09 18:00N 70°38' E 029°43'0 0.0
2017-Nov-09 17:30N 70°38' E 029°43'0 0.0
2017-Nov-09 17:00N 70°38' E 029°43'0 0.0
2017-Nov-09 16:30N 70°38' E 029°43'0 0.0
2017-Nov-09 16:00N 70°38' E 029°43'0 0.0
2017-Nov-09 15:30N 70°38' E 029°43'0 0.0
2017-Nov-09 15:00N 70°38' E 029°43'0 0.0
2017-Nov-09 14:30N 70°38' E 029°43'0 0.0
2017-Nov-09 14:00N 70°38' E 029°43'0 0.0
2017-Nov-09 13:30N 70°38' E 029°43'0 0.0
2017-Nov-09 13:00N 70°38' E 029°43'0 0.0
2017-Nov-09 12:30N 70°38' E 029°43'0 0.0
2017-Nov-09 12:00N 70°38' E 029°43'0 0.0
2017-Nov-09 11:30N 70°38' E 029°43'0 0.0
2017-Nov-09 11:00N 70°38' E 029°43'0 0.0
2017-Nov-09 10:30N 70°38' E 029°43'0 0.0
2017-Nov-09 10:00N 70°38' E 029°43'0 0.0
2017-Nov-09 09:30N 70°38' E 029°43'0 0.0
2017-Nov-09 09:00N 70°38' E 029°43'0 0.0
2017-Nov-09 08:30N 70°38' E 029°43'0 0.0
2017-Nov-09 07:59N 70°38' E 029°43'0 0.0
2017-Nov-09 07:30N 70°38' E 029°43'0 0.0
2017-Nov-09 07:00N 70°38' E 029°43'0 0.0
2017-Nov-09 06:29N 70°38' E 029°43'0 0.0
2017-Nov-09 06:00N 70°38' E 029°43'0 0.0
2017-Nov-09 05:30N 70°38' E 029°43'0 0.0
2017-Nov-09 05:00N 70°38' E 029°43'0 0.0
2017-Nov-09 04:30N 70°38' E 029°43'0 0.0
2017-Nov-09 04:00N 70°38' E 029°43'0 0.0
2017-Nov-09 03:30N 70°38' E 029°43'0 0.0
2017-Nov-09 03:00N 70°38' E 029°43'0 0.0
2017-Nov-09 02:30N 70°38' E 029°43'0 0.0
2017-Nov-09 01:59N 70°38' E 029°43'0 0.0
2017-Nov-09 01:30N 70°38' E 029°43'0 0.0
2017-Nov-09 01:00N 70°38' E 029°43'0 0.0
2017-Nov-09 00:30N 70°38' E 029°43'0 0.0
2017-Nov-09 00:00N 70°38' E 029°43'0 0.0
2017-Nov-08 23:30N 70°38' E 029°43'0 0.0
2017-Nov-08 23:00N 70°38' E 029°43'0 0.0
2017-Nov-08 22:30N 70°38' E 029°43'0 0.0
2017-Nov-08 22:00N 70°38' E 029°43'0 0.0
2017-Nov-08 21:30N 70°38' E 029°43'0 0.0
2017-Nov-08 21:00N 70°38' E 029°43'0 0.0
2017-Nov-08 20:30N 70°38' E 029°43'0 0.0
2017-Nov-08 20:00N 70°38' E 029°43'0 0.0
2017-Nov-08 19:30N 70°38' E 029°43'0 0.0
2017-Nov-08 19:00N 70°38' E 029°43'0 0.0
2017-Nov-08 18:30N 70°38' E 029°43'0 0.0
2017-Nov-08 18:00N 70°38' E 029°43'0 0.0
2017-Nov-08 17:30N 70°38' E 029°43'0 0.0
2017-Nov-08 17:00N 70°38' E 029°43'0 0.0
2017-Nov-08 16:30N 70°38' E 029°43'0 0.0
2017-Nov-08 16:00N 70°38' E 029°43'0 0.0
2017-Nov-08 15:30N 70°38' E 029°43'0 0.0
2017-Nov-08 15:00N 70°38' E 029°43'0 0.0
2017-Nov-08 14:30N 70°38' E 029°43'0 0.0
2017-Nov-08 14:00N 70°38' E 029°43'0 0.0
2017-Nov-08 13:30N 70°38' E 029°43'0 0.0
2017-Nov-08 13:00N 70°38' E 029°43'0 0.0
2017-Nov-08 12:30N 70°38' E 029°43'0 0.0
2017-Nov-08 12:00N 70°38' E 029°43'0 0.0
2017-Nov-08 11:30N 70°38' E 029°43'0 0.0
2017-Nov-08 11:00N 70°38' E 029°43'0 0.0
2017-Nov-08 10:30N 70°38' E 029°43'0 0.0
2017-Nov-08 10:00N 70°38' E 029°43'0 0.0
2017-Nov-08 09:30N 70°38' E 029°43'0 0.0
2017-Nov-08 09:00N 70°38' E 029°43'0 0.0
2017-Nov-08 08:30N 70°38' E 029°43'0 0.0
2017-Nov-08 08:00N 70°38' E 029°43'0 0.0
2017-Nov-08 07:30N 70°38' E 029°43'0 0.0
2017-Nov-08 07:00N 70°38' E 029°43'0 0.0
2017-Nov-08 06:30N 70°38' E 029°43'0 0.0
2017-Nov-08 06:00N 70°38' E 029°43'0 0.0
2017-Nov-08 05:30N 70°38' E 029°43'0 0.0
2017-Nov-08 05:00N 70°38' E 029°43'0 0.0
2017-Nov-08 04:30N 70°38' E 029°43'0 0.0
2017-Nov-08 04:00N 70°38' E 029°43'0 0.0
2017-Nov-08 03:30N 70°38' E 029°43'0 0.0
2017-Nov-08 03:00N 70°38' E 029°43'0 0.0
2017-Nov-08 02:30N 70°38' E 029°43'0 0.0
2017-Nov-08 02:00N 70°38' E 029°43'0 0.0
2017-Nov-08 01:30N 70°38' E 029°43'0 0.0
2017-Nov-08 01:00N 70°38' E 029°43'0 0.0
2017-Nov-08 00:30N 70°38' E 029°43'0 0.0
2017-Nov-08 00:00N 70°38' E 029°43'0 0.0
2017-Nov-07 23:30N 70°38' E 029°43'0 0.0
2017-Nov-07 23:00N 70°38' E 029°43'0 0.0
2017-Nov-07 22:30N 70°38' E 029°43'0 0.0
2017-Nov-07 22:00N 70°38' E 029°43'0 0.0
2017-Nov-07 21:30N 70°38' E 029°43'0 0.0
2017-Nov-07 21:00N 70°38' E 029°43'0 0.0
2017-Nov-07 20:30N 70°38' E 029°43'0 0.0
2017-Nov-07 19:59N 70°38' E 029°43'0 0.0
2017-Nov-07 19:30N 70°38' E 029°43'0 0.0
2017-Nov-07 19:00N 70°38' E 029°43'0 0.0
2017-Nov-07 18:29N 70°38' E 029°43'0 0.0
2017-Nov-07 18:00N 70°38' E 029°43'0 0.0
2017-Nov-07 17:30N 70°38' E 029°43'0 0.0
2017-Nov-07 16:59N 70°38' E 029°43'0 0.0
2017-Nov-07 16:30N 70°38' E 029°43'0 0.0
2017-Nov-07 16:00N 70°38' E 029°43'0 0.0
2017-Nov-07 15:29N 70°38' E 029°43'0 0.0
2017-Nov-07 15:00N 70°38' E 029°43'0 0.0
2017-Nov-07 14:30N 70°38' E 029°43'0 0.0
2017-Nov-07 14:00N 70°38' E 029°43'0 0.0
2017-Nov-07 13:30N 70°38' E 029°43'0 0.0
2017-Nov-07 13:00N 70°38' E 029°43'0 0.0
2017-Nov-07 12:30N 70°38' E 029°43'0 0.0
2017-Nov-07 12:00N 70°38' E 029°43'0 0.0
2017-Nov-07 11:30N 70°38' E 029°43'0 0.0
2017-Nov-07 11:00N 70°38' E 029°43'0 0.0
2017-Nov-07 10:30N 70°38' E 029°43'0 0.0
2017-Nov-07 10:00N 70°38' E 029°43'0 0.0
2017-Nov-07 09:30N 70°38' E 029°43'0 0.0
2017-Nov-07 09:00N 70°38' E 029°43'0 0.0
2017-Nov-07 08:30N 70°38' E 029°43'0 0.0
2017-Nov-07 08:00N 70°38' E 029°43'0 0.0
2017-Nov-07 07:30N 70°38' E 029°43'0 0.0
2017-Nov-07 07:00N 70°38' E 029°43'0 0.0
2017-Nov-07 06:30N 70°38' E 029°43'0 0.0
2017-Nov-07 06:00N 70°38' E 029°43'0 0.0
2017-Nov-07 05:30N 70°38' E 029°43'0 0.0
2017-Nov-07 05:00N 70°38' E 029°43'0 0.0
2017-Nov-07 04:30N 70°38' E 029°43'0 0.0
2017-Nov-07 04:00N 70°38' E 029°43'0 0.0
2017-Nov-07 03:29N 70°38' E 029°43'0 0.0
2017-Nov-07 03:00N 70°38' E 029°43'0 0.0
2017-Nov-07 02:30N 70°38' E 029°43'0 0.0
2017-Nov-07 02:00N 70°38' E 029°43'0 0.0
2017-Nov-07 01:30N 70°38' E 029°43'0 0.0
2017-Nov-07 01:00N 70°38' E 029°43'0 0.0
2017-Nov-07 00:30N 70°38' E 029°43'0 0.0
2017-Nov-07 00:00N 70°38' E 029°43'0 0.0
2017-Nov-06 23:30N 70°38' E 029°43'0 0.0
2017-Nov-06 23:00N 70°38' E 029°43'0 0.0
2017-Nov-06 22:30N 70°38' E 029°43'0 0.0
2017-Nov-06 22:00N 70°38' E 029°43'0 0.0
2017-Nov-06 21:30N 70°38' E 029°43'0 0.0
2017-Nov-06 21:00N 70°38' E 029°43'0 0.0
2017-Nov-06 20:30N 70°38' E 029°43'  

Dump ship's entire track history